Nearby METAR Reports

 

TNCA - Queen Beatrix, Lesser Antilles
Distance from station: 0 0km
Updated: 26/02/2017 17:00
Few Clouds
Few Clouds
 Wind from E
Wind: E 28 km/h
Temperature: 30°C
Heat Index: 33°C
Dew Point: 22°C
Humidity: 62%
Barometer: 1012 hPa
Clouds: Few Clouds
Visibility: 10 km
Cloud details: Few Clouds 701 m
2017/02/26 21:00 TNCA 262100Z 08015KT 9999 FEW023 30/22 Q1012 A2989 NOSIG
SVJC - Paraguana/Josefa, Venezuela
Distance from station: S 83km
Updated: 17/10/2016 15:00
NOT Current
Partly Cloudy
Partly Cloudy
 Wind from E
Wind: E 19 km/h
Temperature: 30°C
Heat Index: 33°C
Dew Point: 22°C
Humidity: 62%
Barometer: 1006 hPa
Clouds: Partly Cloudy
Visibility: 7 km
Cloud details: Partly Cloudy 1219 m
2016/10/17 19:00 SVJC 171900Z 09010KT 7000 SCT040 30/22 Q1006
 
TNCC - Hato Air Curacao, Lesser Antilles
Distance from station: ESE 117km
Updated: 26/02/2017 17:00
Few Clouds
Few Clouds
 Wind from ENE
Wind: ENE 17 km/h
Temperature: 28°C
Heat Index: 30°C
Dew Point: 22°C
Humidity: 70%
Barometer: 1013 hPa
Clouds: Few Clouds
Visibility: 10 km
Cloud details: Few Clouds 610 m
2017/02/26 21:00 TNCC 262100Z 07009KT 040V100 9999 FEW020 28/22 Q1013 NOSIG
SVCR - Coro/Jose Leonar, Venezuela
Distance from station: SSE 126km
Updated: 31/12/2016 11:00
NOT Current
Few Clouds
Few Clouds
 Wind from ESE
Wind: ESE 28 km/h
Clouds: Few Clouds
Visibility: 10 km
Cloud details: Few Clouds 488 m
2016/12/31 15:00 SVCR 311500Z 12015KT 9999 FEW016 XX/XX Q1015
 
TNCB - Bonaire/Flamingo, Lesser Antilles
Distance from station: ESE 191km
Updated: 26/02/2017 16:55
Partly Cloudy
Partly Cloudy
 Wind from E
Wind: E 22 km/h
Temperature: 29°C
Heat Index: 32°C
Dew Point: 22°C
Humidity: 66%
Barometer: 1013 hPa
Clouds: Partly Cloudy
Visibility: 10 km
Cloud details: Few Clouds 701 m
Partly Cloudy 823 m
2017/02/26 20:55 TNCB 262055Z AUTO 09012KT 050V130 9999 FEW023/// SCT027/// 29/22 Q1013
SVMC - Maracaibo/La Chi, Venezuela
Distance from station: SW 285km
Updated: 31/12/2016 07:00
NOT Current
Partly Cloudy
Partly Cloudy
 Wind from NNW
Wind: NNW 9 km/h
Temperature: 25°C
Dew Point: 23°C
Humidity: 89%
Barometer: 1012 hPa
Clouds: Partly Cloudy
Visibility: 10 km
Cloud details: Partly Cloudy 396 m
2016/12/31 11:00 SVMC 311100Z 34005KT 9999 SCT013 25/23 Q1012